createdAt,value
2016-11-08T00:01:39.157Z,1002.17
2016-11-08T00:02:20.831Z,1002.2
2016-11-08T00:04:51.885Z,1002.17
2016-11-08T00:05:33.582Z,1002.15
2016-11-08T00:07:28.464Z,1002.14
2016-11-08T00:08:10.152Z,1002.15
2016-11-08T00:08:51.860Z,1002.13
2016-11-08T00:09:33.423Z,1002.13
2016-11-08T00:11:33.395Z,1002.12
2016-11-08T00:12:15.151Z,1002.11
2016-11-08T00:12:56.743Z,1002.11
2016-11-08T00:13:38.431Z,1002.08
2016-11-08T00:14:20.095Z,1002.07
2016-11-08T00:15:01.755Z,1002.08
2016-11-08T00:15:43.389Z,1002.11
2016-11-08T00:16:25.117Z,1002.13
2016-11-08T00:17:06.869Z,1002.07
2016-11-08T00:17:48.720Z,1002.14
2016-11-08T00:18:30.333Z,1002.11
2016-11-08T00:19:12.002Z,1002.09
2016-11-08T00:19:53.479Z,1002.09
2016-11-08T00:20:35.157Z,1002.12
2016-11-08T00:22:29.880Z,1002.14
2016-11-08T00:24:29.888Z,1002.17
2016-11-08T00:25:11.623Z,1002.14
2016-11-08T00:25:53.184Z,1002.18
2016-11-08T00:26:34.928Z,1002.16
2016-11-08T00:27:16.670Z,1002.18
2016-11-08T00:27:58.422Z,1002.17
2016-11-08T00:28:40.050Z,1002.12
2016-11-08T00:30:34.737Z,1002.16
2016-11-08T00:31:16.408Z,1002.17
2016-11-08T00:31:58.121Z,1002.19
2016-11-08T00:32:39.844Z,1002.19
2016-11-08T00:33:21.546Z,1002.22
2016-11-08T00:35:52.618Z,1002.22
2016-11-08T00:36:34.321Z,1002.22
2016-11-08T00:37:16.064Z,1002.17
2016-11-08T00:37:57.763Z,1002.23
2016-11-08T00:38:39.522Z,1002.29
2016-11-08T00:39:21.199Z,1002.26
2016-11-08T00:40:02.926Z,1002.27
2016-11-08T00:40:44.661Z,1002.26
2016-11-08T00:41:26.261Z,1002.26
2016-11-08T00:42:07.904Z,1002.25
2016-11-08T00:46:17.982Z,1002.27
2016-11-08T00:46:59.716Z,1002.3
2016-11-08T00:47:41.399Z,1002.29
2016-11-08T00:49:36.114Z,1002.25
2016-11-08T00:51:36.143Z,1002.27
2016-11-08T00:52:17.855Z,1002.27
2016-11-08T00:52:59.460Z,1002.27
2016-11-08T00:53:41.225Z,1002.31
2016-11-08T00:54:22.885Z,1002.33
2016-11-08T00:56:38.333Z,1002.31
2016-11-08T00:57:19.901Z,1002.29
2016-11-08T00:58:01.547Z,1002.34
2016-11-08T01:00:32.815Z,1002.3
2016-11-08T01:01:13.808Z,1002.29
2016-11-08T01:01:55.057Z,1002.32
2016-11-08T01:02:36.230Z,1002.3
2016-11-08T01:03:17.847Z,1002.3
2016-11-08T01:03:59.571Z,1002.28
2016-11-08T01:04:41.047Z,1002.3
2016-11-08T01:05:22.512Z,1002.28
2016-11-08T01:06:04.216Z,1002.26
2016-11-08T01:06:45.803Z,1002.29
2016-11-08T01:07:27.488Z,1002.29
2016-11-08T01:08:09.169Z,1002.34
2016-11-08T01:08:50.851Z,1002.33
2016-11-08T01:09:32.518Z,1002.34
2016-11-08T01:10:15.026Z,1002.31
2016-11-08T01:12:35.621Z,1002.29
2016-11-08T01:14:50.783Z,1002.31
2016-11-08T01:15:32.272Z,1002.29
2016-11-08T01:17:27.062Z,1002.27
2016-11-08T01:18:08.740Z,1002.24
2016-11-08T01:20:08.741Z,1002.25
2016-11-08T01:20:50.481Z,1002.21
2016-11-08T01:21:32.179Z,1002.22
2016-11-08T01:23:47.530Z,1002.22
2016-11-08T01:24:29.227Z,1002.21
2016-11-08T01:25:10.973Z,1002.2
2016-11-08T01:25:52.657Z,1002.23
2016-11-08T01:26:34.379Z,1002.21
2016-11-08T01:27:16.162Z,1002.17
2016-11-08T01:27:57.749Z,1002.18
2016-11-08T01:28:39.471Z,1002.2
2016-11-08T01:29:21.212Z,1002.19
2016-11-08T01:30:02.826Z,1002.18
2016-11-08T01:30:44.618Z,1002.15
2016-11-08T01:31:26.293Z,1002.15
2016-11-08T01:32:08.060Z,1002.11
2016-11-08T01:32:49.696Z,1002.13
2016-11-08T01:35:20.726Z,1002.07
2016-11-08T01:36:02.414Z,1002.07
2016-11-08T01:37:57.171Z,1002.08
2016-11-08T01:38:38.914Z,1002.08
2016-11-08T01:41:10.064Z,1002.06
2016-11-08T01:41:51.742Z,1002.09
2016-11-08T01:44:22.688Z,1002.08
2016-11-08T01:45:04.438Z,1002
2016-11-08T01:45:46.190Z,1002
2016-11-08T01:46:27.874Z,1002.04
2016-11-08T01:47:09.470Z,1002.04
2016-11-08T01:47:51.203Z,1002.04
2016-11-08T01:49:46.007Z,1002.02
2016-11-08T01:50:27.685Z,1002.04
2016-11-08T01:51:09.321Z,1002.01
2016-11-08T01:53:04.123Z,1002.03
2016-11-08T01:53:45.823Z,1002.03
2016-11-08T01:54:27.465Z,1002.01
2016-11-08T01:56:27.512Z,1002.03
2016-11-08T01:57:09.266Z,1002.01
2016-11-08T01:57:51.008Z,1002.01
2016-11-08T01:58:32.618Z,1002.02
2016-11-08T01:59:14.318Z,1002.02
2016-11-08T02:01:45.430Z,1001.97
2016-11-08T02:02:27.218Z,1001.98
2016-11-08T02:03:08.835Z,1002.02
2016-11-08T02:03:50.448Z,1002.02
2016-11-08T02:04:31.207Z,1001.98
2016-11-08T02:05:11.735Z,1001.97
2016-11-08T02:05:52.249Z,1001.94
2016-11-08T02:06:32.765Z,1001.99
2016-11-08T02:07:13.273Z,1001.99
2016-11-08T02:07:53.798Z,1001.96
2016-11-08T02:08:34.312Z,1001.99
2016-11-08T02:09:14.843Z,1001.95
2016-11-08T02:09:55.366Z,1001.97
2016-11-08T02:10:35.877Z,1001.96
2016-11-08T02:11:16.395Z,1001.94
2016-11-08T02:11:56.920Z,1001.98
2016-11-08T02:12:37.436Z,1001.98
2016-11-08T02:13:17.965Z,1002
2016-11-08T02:13:58.474Z,1001.96
2016-11-08T02:14:38.982Z,1001.95
2016-11-08T02:15:19.479Z,1001.95
2016-11-08T02:15:59.997Z,1001.96
2016-11-08T02:16:40.488Z,1001.98
2016-11-08T02:17:21.020Z,1002
2016-11-08T02:18:01.504Z,1001.96
2016-11-08T02:18:42.015Z,1002.01
2016-11-08T02:19:22.523Z,1001.98
2016-11-08T02:20:03.046Z,1002.01
2016-11-08T02:20:43.579Z,1002
2016-11-08T02:21:24.099Z,1002.03
2016-11-08T02:22:04.597Z,1002.07
2016-11-08T02:22:45.090Z,1002.06
2016-11-08T02:23:25.600Z,1002.06
2016-11-08T02:24:06.124Z,1002.06
2016-11-08T02:24:46.657Z,1002.06
2016-11-08T02:25:27.189Z,1002.06
2016-11-08T02:26:07.713Z,1002.03
2016-11-08T02:26:48.249Z,1002.07
2016-11-08T02:27:28.782Z,1002.01
2016-11-08T02:28:09.320Z,1002.03
2016-11-08T02:28:49.840Z,1002.05
2016-11-08T02:29:30.342Z,1002.01
2016-11-08T02:30:10.874Z,1002.04
2016-11-08T02:30:51.372Z,1002.03
2016-11-08T02:31:31.886Z,1002.01
2016-11-08T02:32:12.408Z,1002.01
2016-11-08T02:32:52.937Z,1002.04
2016-11-08T02:33:33.455Z,1002.03
2016-11-08T02:34:13.971Z,1002.02
2016-11-08T02:34:54.487Z,1002.03
2016-11-08T02:35:34.986Z,1002.06
2016-11-08T02:36:15.520Z,1002.01
2016-11-08T02:36:56.053Z,1002.01
2016-11-08T02:37:36.581Z,1002.04
2016-11-08T02:38:17.098Z,1002.05
2016-11-08T02:38:57.634Z,1002.03
2016-11-08T02:39:38.141Z,1002.05
2016-11-08T02:40:18.660Z,1002.04
2016-11-08T02:40:59.194Z,1001.99
2016-11-08T02:41:39.727Z,1002.02
2016-11-08T02:42:20.242Z,1002.01
2016-11-08T02:43:00.745Z,1002.03
2016-11-08T02:43:41.279Z,1002.02
2016-11-08T02:44:21.791Z,1002.03
2016-11-08T02:45:02.302Z,1002.01
2016-11-08T02:45:42.821Z,1002.03
2016-11-08T02:46:23.310Z,1002.01
2016-11-08T02:47:03.817Z,1001.98
2016-11-08T02:47:44.324Z,1001.98
2016-11-08T02:48:24.842Z,1002
2016-11-08T02:49:05.358Z,1002
2016-11-08T02:49:45.855Z,1001.99
2016-11-08T02:50:26.378Z,1002
2016-11-08T02:51:06.876Z,1002
2016-11-08T02:51:47.394Z,1001.94
2016-11-08T02:52:27.914Z,1001.99
2016-11-08T02:53:08.423Z,1002
2016-11-08T02:53:48.954Z,1001.97
2016-11-08T02:54:29.474Z,1001.99
2016-11-08T02:55:10.006Z,1001.96
2016-11-08T02:55:50.511Z,1001.98
2016-11-08T02:56:31.015Z,1001.96
2016-11-08T02:57:11.542Z,1002.01
2016-11-08T02:57:52.082Z,1001.97
2016-11-08T02:58:32.608Z,1002
2016-11-08T02:59:13.131Z,1002
2016-11-08T02:59:53.627Z,1001.97
2016-11-08T03:00:34.137Z,1002.01
2016-11-08T03:01:14.669Z,1002.02
2016-11-08T03:01:55.179Z,1002.01
2016-11-08T03:02:35.687Z,1002.01
2016-11-08T03:03:16.205Z,1001.99
2016-11-08T03:03:56.706Z,1002.04
2016-11-08T03:04:37.220Z,1002.05
2016-11-08T03:05:17.724Z,1002.05
2016-11-08T03:05:58.238Z,1002
2016-11-08T03:06:38.765Z,1002.02
2016-11-08T03:07:19.250Z,1001.98
2016-11-08T03:07:59.753Z,1001.98
2016-11-08T03:08:40.270Z,1002.01
2016-11-08T03:09:20.780Z,1002.01
2016-11-08T03:10:01.290Z,1002.02
2016-11-08T03:10:41.795Z,1002.01
2016-11-08T03:11:22.314Z,1002.01
2016-11-08T03:12:02.827Z,1002.03
2016-11-08T03:12:43.350Z,1002
2016-11-08T03:13:23.872Z,1002.01
2016-11-08T03:14:04.355Z,1001.99
2016-11-08T03:14:44.880Z,1002
2016-11-08T03:15:25.391Z,1002.04
2016-11-08T03:16:05.918Z,1002.05
2016-11-08T03:16:46.414Z,1002.08
2016-11-08T03:17:26.942Z,1002.11
2016-11-08T03:18:07.451Z,1002.05
2016-11-08T03:18:47.988Z,1002.08
2016-11-08T03:19:28.504Z,1002.07
2016-11-08T03:20:09.023Z,1002.08
2016-11-08T03:20:49.537Z,1002.1
2016-11-08T03:21:30.062Z,1002.06
2016-11-08T03:22:10.580Z,1002.07
2016-11-08T03:22:51.096Z,1002.13
2016-11-08T03:23:31.627Z,1002.13
2016-11-08T03:24:12.150Z,1002.13
2016-11-08T03:24:52.671Z,1002.14
2016-11-08T03:25:33.208Z,1002.12
2016-11-08T03:26:13.727Z,1002.08
2016-11-08T03:26:54.248Z,1002.11
2016-11-08T03:27:34.773Z,1002.11
2016-11-08T03:28:15.304Z,1002.11
2016-11-08T03:28:55.837Z,1002.11
2016-11-08T03:29:36.370Z,1002.09
2016-11-08T03:30:16.893Z,1002.1
2016-11-08T03:30:57.423Z,1002.13
2016-11-08T03:31:37.933Z,1002.13
2016-11-08T03:32:18.457Z,1002.15
2016-11-08T03:32:59.013Z,1002.14
2016-11-08T03:33:39.536Z,1002.17
2016-11-08T03:34:20.056Z,1002.17
2016-11-08T03:35:00.573Z,1002.22
2016-11-08T03:35:41.112Z,1002.16
2016-11-08T03:36:21.639Z,1002.17
2016-11-08T03:37:02.145Z,1002.15
2016-11-08T03:37:42.658Z,1002.21
2016-11-08T03:38:23.178Z,1002.2
2016-11-08T03:39:03.692Z,1002.16
2016-11-08T03:39:44.226Z,1002.16
2016-11-08T03:40:24.730Z,1002.17
2016-11-08T03:41:05.244Z,1002.14
2016-11-08T03:41:45.770Z,1002.22
2016-11-08T03:42:26.264Z,1002.17
2016-11-08T03:43:06.787Z,1002.2
2016-11-08T03:43:47.321Z,1002.2
2016-11-08T03:44:27.782Z,1002.18
2016-11-08T03:45:08.285Z,1002.22
2016-11-08T03:45:48.783Z,1002.22
2016-11-08T03:46:29.279Z,1002.23
2016-11-08T03:47:09.796Z,1002.24
2016-11-08T03:47:50.298Z,1002.22
2016-11-08T03:48:30.806Z,1002.24
2016-11-08T03:49:11.335Z,1002.25
2016-11-08T03:49:51.850Z,1002.25
2016-11-08T03:50:32.351Z,1002.26
2016-11-08T03:51:12.875Z,1002.25
2016-11-08T03:51:53.380Z,1002.26
2016-11-08T03:52:33.902Z,1002.26
2016-11-08T03:53:14.421Z,1002.23
2016-11-08T03:53:54.946Z,1002.25
2016-11-08T03:54:35.480Z,1002.27
2016-11-08T03:55:16.027Z,1002.26
2016-11-08T03:55:56.546Z,1002.28
2016-11-08T03:56:37.075Z,1002.3
2016-11-08T03:57:17.604Z,1002.29
2016-11-08T03:57:58.191Z,1002.29
2016-11-08T03:58:38.716Z,1002.28
2016-11-08T03:59:19.247Z,1002.27
2016-11-08T03:59:59.779Z,1002.28
2016-11-08T04:00:40.297Z,1002.24
2016-11-08T04:01:20.834Z,1002.22
2016-11-08T04:02:01.358Z,1002.26
2016-11-08T04:02:41.868Z,1002.28
2016-11-08T04:03:22.397Z,1002.24
2016-11-08T04:04:02.900Z,1002.23
2016-11-08T04:04:43.410Z,1002.2
2016-11-08T04:05:23.921Z,1002.23
2016-11-08T04:06:04.455Z,1002.21
2016-11-08T04:06:44.983Z,1002.21
2016-11-08T04:07:25.509Z,1002.27
2016-11-08T04:08:06.023Z,1002.23
2016-11-08T04:08:46.530Z,1002.27
2016-11-08T04:09:27.044Z,1002.26
2016-11-08T04:10:07.565Z,1002.23
2016-11-08T04:10:48.079Z,1002.21
2016-11-08T04:11:28.611Z,1002.19
2016-11-08T04:12:09.132Z,1002.26
2016-11-08T04:12:49.655Z,1002.22
2016-11-08T04:13:30.152Z,1002.23
2016-11-08T04:14:10.666Z,1002.26
2016-11-08T04:14:51.217Z,1002.23
2016-11-08T04:15:31.711Z,1002.23
2016-11-08T04:16:12.230Z,1002.23
2016-11-08T04:16:52.750Z,1002.19
2016-11-08T04:17:33.252Z,1002.22
2016-11-08T04:18:13.759Z,1002.22
2016-11-08T04:18:54.338Z,1002.19
2016-11-08T04:19:34.834Z,1002.23
2016-11-08T04:20:15.339Z,1002.19
2016-11-08T04:20:55.843Z,1002.17
2016-11-08T04:21:36.341Z,1002.17
2016-11-08T04:22:16.917Z,1002.21
2016-11-08T04:22:57.454Z,1002.18
2016-11-08T04:23:37.947Z,1002.14
2016-11-08T04:24:18.451Z,1002.2
2016-11-08T04:24:58.961Z,1002.19
2016-11-08T04:25:39.487Z,1002.17
2016-11-08T04:26:20.015Z,1002.17
2016-11-08T04:27:00.540Z,1002.17
2016-11-08T04:27:41.064Z,1002.18
2016-11-08T04:28:21.582Z,1002.2
2016-11-08T04:29:02.136Z,1002.15
2016-11-08T04:29:42.638Z,1002.18
2016-11-08T04:30:23.150Z,1002.2
2016-11-08T04:31:03.701Z,1002.21
2016-11-08T04:31:44.220Z,1002.16
2016-11-08T04:32:24.740Z,1002.17
2016-11-08T04:33:05.272Z,1002.14
2016-11-08T04:33:45.812Z,1002.16
2016-11-08T04:34:26.317Z,1002.15
2016-11-08T04:35:06.838Z,1002.15
2016-11-08T04:35:47.489Z,1002.11
2016-11-08T04:36:27.975Z,1002.15
2016-11-08T04:37:08.491Z,1002.1
2016-11-08T04:37:48.987Z,1002.12
2016-11-08T04:38:29.512Z,1002.14
2016-11-08T04:39:10.042Z,1002.12
2016-11-08T04:39:50.570Z,1002.09
2016-11-08T04:40:31.059Z,1002.1
2016-11-08T04:41:11.568Z,1002.12
2016-11-08T04:41:52.099Z,1002.1
2016-11-08T04:42:32.618Z,1002.09
2016-11-08T04:43:13.145Z,1002.12
2016-11-08T04:43:53.665Z,1002.09
2016-11-08T04:44:34.178Z,1002.08
2016-11-08T04:45:14.689Z,1002.12
2016-11-08T04:45:55.228Z,1002.09
2016-11-08T04:46:35.735Z,1002.11
2016-11-08T04:47:16.310Z,1002.13
2016-11-08T04:47:56.847Z,1002.06
2016-11-08T04:48:37.355Z,1002.08
2016-11-08T04:49:17.853Z,1002.09
2016-11-08T04:49:58.382Z,1002.09
2016-11-08T04:50:38.923Z,1002.08
2016-11-08T04:51:19.448Z,1002.1
2016-11-08T04:51:59.980Z,1002.08
2016-11-08T04:52:40.521Z,1002.06
2016-11-08T04:53:21.034Z,1002.09
2016-11-08T04:54:01.574Z,1002.12
2016-11-08T04:54:42.111Z,1002.15
2016-11-08T04:55:22.615Z,1002.13
2016-11-08T04:56:03.129Z,1002.13
2016-11-08T04:56:43.669Z,1002.13
2016-11-08T04:57:24.208Z,1002.14
2016-11-08T04:58:04.737Z,1002.1
2016-11-08T04:58:45.257Z,1002.18
2016-11-08T04:59:25.784Z,1002.12
2016-11-08T05:00:06.317Z,1002.16
2016-11-08T05:00:46.880Z,1002.15
2016-11-08T05:01:27.411Z,1002.13
2016-11-08T05:02:07.955Z,1002.11
2016-11-08T05:02:48.452Z,1002.11
2016-11-08T05:03:29.000Z,1002.08
2016-11-08T05:04:09.527Z,1002.1
2016-11-08T05:04:50.045Z,1002.11
2016-11-08T05:05:30.554Z,1002.15
2016-11-08T05:06:11.063Z,1002.11
2016-11-08T05:06:51.553Z,1002.16
2016-11-08T05:07:32.080Z,1002.13
2016-11-08T05:08:12.606Z,1002.17
2016-11-08T05:08:53.125Z,1002.17
2016-11-08T05:09:33.650Z,1002.18
2016-11-08T05:10:14.175Z,1002.18
2016-11-08T05:10:54.716Z,1002.16
2016-11-08T05:11:35.242Z,1002.15
2016-11-08T05:12:15.770Z,1002.14
2016-11-08T05:12:56.280Z,1002.14
2016-11-08T05:13:36.807Z,1002.14
2016-11-08T05:14:17.343Z,1002.16
2016-11-08T05:14:57.874Z,1002.15
2016-11-08T05:15:38.407Z,1002.14
2016-11-08T05:16:18.937Z,1002.14
2016-11-08T05:16:59.459Z,1002.16
2016-11-08T05:17:39.942Z,1002.16
2016-11-08T05:18:20.450Z,1002.16
2016-11-08T05:19:00.958Z,1002.18
2016-11-08T05:19:41.486Z,1002.15
2016-11-08T05:20:22.011Z,1002.13
2016-11-08T05:21:02.659Z,1002.16
2016-11-08T05:21:43.173Z,1002.15
2016-11-08T05:22:23.687Z,1002.17
2016-11-08T05:23:04.211Z,1002.15
2016-11-08T05:23:44.729Z,1002.15
2016-11-08T05:24:25.254Z,1002.14
2016-11-08T05:25:05.759Z,1002.13
2016-11-08T05:25:46.284Z,1002.1
2016-11-08T05:26:26.791Z,1002.12
2016-11-08T05:27:07.299Z,1002.14
2016-11-08T05:27:47.841Z,1002.18
2016-11-08T05:28:28.368Z,1002.13
2016-11-08T05:29:08.876Z,1002.14
2016-11-08T05:29:49.398Z,1002.15
2016-11-08T05:30:29.928Z,1002.13
2016-11-08T05:31:10.430Z,1002.14
2016-11-08T05:31:50.950Z,1002.18
2016-11-08T05:32:31.481Z,1002.14
2016-11-08T05:33:12.015Z,1002.17
2016-11-08T05:33:52.526Z,1002.15
2016-11-08T05:34:33.056Z,1002.2
2016-11-08T05:35:13.555Z,1002.18
2016-11-08T05:35:54.076Z,1002.2
2016-11-08T05:36:34.601Z,1002.19
2016-11-08T05:37:15.134Z,1002.18
2016-11-08T05:37:55.658Z,1002.19
2016-11-08T05:38:36.174Z,1002.22
2016-11-08T05:39:16.688Z,1002.19
2016-11-08T05:39:57.413Z,1002.22
2016-11-08T05:40:37.754Z,1002.21
2016-11-08T05:41:18.271Z,1002.23
2016-11-08T05:41:58.822Z,1002.24
2016-11-08T05:42:39.308Z,1002.23
2016-11-08T05:43:19.844Z,1002.27
2016-11-08T05:44:00.392Z,1002.23
2016-11-08T05:44:40.941Z,1002.27
2016-11-08T05:46:55.156Z,1002.25
2016-11-08T05:47:35.741Z,1002.28
2016-11-08T05:48:16.293Z,1002.25
2016-11-08T05:48:56.821Z,1002.26
2016-11-08T05:49:37.360Z,1002.32
2016-11-08T05:50:17.886Z,1002.32
2016-11-08T05:50:58.417Z,1002.35
2016-11-08T05:51:38.947Z,1002.37
2016-11-08T05:52:19.476Z,1002.35
2016-11-08T05:53:00.002Z,1002.29
2016-11-08T05:53:40.537Z,1002.35
2016-11-08T05:54:21.074Z,1002.38
2016-11-08T05:55:01.600Z,1002.4
2016-11-08T05:55:42.126Z,1002.42
2016-11-08T05:56:22.662Z,1002.44
2016-11-08T05:57:03.176Z,1002.43
2016-11-08T05:57:43.721Z,1002.41
2016-11-08T05:58:24.248Z,1002.46
2016-11-08T05:59:04.786Z,1002.45
2016-11-08T05:59:45.315Z,1002.45
2016-11-08T06:00:25.834Z,1002.45
2016-11-08T06:01:06.358Z,1002.48
2016-11-08T06:01:46.880Z,1002.38
2016-11-08T06:02:27.423Z,1002.49
2016-11-08T06:03:07.935Z,1002.48
2016-11-08T06:03:48.462Z,1002.48
2016-11-08T06:04:28.968Z,1002.45
2016-11-08T06:05:09.490Z,1002.45
2016-11-08T06:05:49.992Z,1002.49
2016-11-08T06:06:30.489Z,1002.48
2016-11-08T06:07:11.007Z,1002.54
2016-11-08T06:07:51.546Z,1002.49
2016-11-08T06:08:32.155Z,1002.55
2016-11-08T06:09:12.603Z,1002.51
2016-11-08T06:09:53.127Z,1002.49
2016-11-08T06:10:33.642Z,1002.52
2016-11-08T06:11:14.165Z,1002.52
2016-11-08T06:11:54.716Z,1002.55
2016-11-08T06:12:35.244Z,1002.54
2016-11-08T06:13:15.765Z,1002.58
2016-11-08T06:13:56.286Z,1002.57
2016-11-08T06:14:36.833Z,1002.56
2016-11-08T06:15:17.359Z,1002.56
2016-11-08T06:15:57.881Z,1002.57
2016-11-08T06:16:38.399Z,1002.6
2016-11-08T06:17:18.922Z,1002.58
2016-11-08T06:17:59.470Z,1002.58
2016-11-08T06:18:39.989Z,1002.59
2016-11-08T06:19:20.510Z,1002.62
2016-11-08T06:20:01.030Z,1002.61
2016-11-08T06:20:41.575Z,1002.61
2016-11-08T06:21:22.104Z,1002.6
2016-11-08T06:22:02.609Z,1002.64
2016-11-08T06:22:43.134Z,1002.64
2016-11-08T06:23:23.661Z,1002.64
2016-11-08T06:24:04.178Z,1002.63
2016-11-08T06:24:44.699Z,1002.67
2016-11-08T06:25:25.231Z,1002.68
2016-11-08T06:26:05.750Z,1002.64
2016-11-08T06:26:46.269Z,1002.68
2016-11-08T06:27:26.805Z,1002.71
2016-11-08T06:28:07.319Z,1002.72
2016-11-08T06:28:47.844Z,1002.71
2016-11-08T06:29:28.370Z,1002.72
2016-11-08T06:30:08.897Z,1002.7
2016-11-08T06:30:49.432Z,1002.75
2016-11-08T06:31:29.962Z,1002.71
2016-11-08T06:32:10.479Z,1002.71
2016-11-08T06:32:51.010Z,1002.73
2016-11-08T06:33:31.558Z,1002.74
2016-11-08T06:34:12.079Z,1002.73
2016-11-08T06:34:52.639Z,1002.75
2016-11-08T06:35:33.154Z,1002.73
2016-11-08T06:36:13.679Z,1002.75
2016-11-08T06:36:54.223Z,1002.75
2016-11-08T06:37:34.719Z,1002.73
2016-11-08T06:38:15.251Z,1002.76
2016-11-08T06:38:55.781Z,1002.77
2016-11-08T06:39:37.387Z,1002.79
2016-11-08T06:40:21.379Z,1002.77
2016-11-08T06:41:02.044Z,1002.76
2016-11-08T06:41:42.592Z,1002.78
2016-11-08T06:42:23.117Z,1002.82
2016-11-08T06:43:03.605Z,1002.78
2016-11-08T06:43:44.129Z,1002.8
2016-11-08T06:44:24.673Z,1002.79
2016-11-08T06:45:05.189Z,1002.82
2016-11-08T06:45:45.721Z,1002.8
2016-11-08T06:46:26.242Z,1002.82
2016-11-08T06:47:06.771Z,1002.81
2016-11-08T06:47:47.296Z,1002.8
2016-11-08T06:48:27.815Z,1002.8
2016-11-08T06:49:08.367Z,1002.84
2016-11-08T06:49:48.861Z,1002.79
2016-11-08T06:50:29.404Z,1002.87
2016-11-08T06:51:09.918Z,1002.86
2016-11-08T06:51:50.458Z,1002.84
2016-11-08T06:52:30.979Z,1002.87
2016-11-08T06:53:11.508Z,1002.89
2016-11-08T06:53:52.036Z,1002.86
2016-11-08T06:54:32.552Z,1002.85
2016-11-08T06:55:13.085Z,1002.84
2016-11-08T06:55:53.638Z,1002.86
2016-11-08T06:56:34.170Z,1002.86
2016-11-08T06:57:14.713Z,1002.88
2016-11-08T06:57:55.228Z,1002.87
2016-11-08T06:58:35.734Z,1002.87
2016-11-08T06:59:16.271Z,1002.86
2016-11-08T06:59:56.796Z,1002.88
2016-11-08T07:00:37.323Z,1002.89
2016-11-08T07:01:17.854Z,1002.86
2016-11-08T07:01:58.383Z,1002.87
2016-11-08T07:02:38.922Z,1002.9
2016-11-08T07:03:19.457Z,1002.87
2016-11-08T07:03:59.982Z,1002.87
2016-11-08T07:04:40.502Z,1002.87
2016-11-08T07:05:21.028Z,1002.9
2016-11-08T07:06:01.557Z,1002.89
2016-11-08T07:06:42.101Z,1002.91
2016-11-08T07:07:22.635Z,1002.91
2016-11-08T07:08:03.140Z,1002.89
2016-11-08T07:08:43.686Z,1002.9
2016-11-08T07:09:24.228Z,1002.88
2016-11-08T07:10:04.763Z,1002.92
2016-11-08T07:10:45.270Z,1002.93
2016-11-08T07:11:25.796Z,1002.91
2016-11-08T07:12:06.336Z,1002.87
2016-11-08T07:12:46.873Z,1002.89
2016-11-08T07:13:27.406Z,1002.92
2016-11-08T07:14:07.946Z,1002.9
2016-11-08T07:14:48.449Z,1002.94
2016-11-08T07:15:28.987Z,1002.93
2016-11-08T07:16:09.526Z,1002.93
2016-11-08T07:16:50.066Z,1002.98
2016-11-08T07:17:30.589Z,1002.98
2016-11-08T07:18:11.093Z,1002.96
2016-11-08T07:18:51.639Z,1002.95
2016-11-08T07:19:32.211Z,1002.97
2016-11-08T07:20:14.510Z,1003
2016-11-08T07:20:55.037Z,1003
2016-11-08T07:21:35.568Z,1003
2016-11-08T07:22:16.084Z,1003.03
2016-11-08T07:22:56.621Z,1003.02
2016-11-08T07:23:37.164Z,1003.02
2016-11-08T07:24:17.787Z,1003.02
2016-11-08T07:24:58.413Z,1003.06
2016-11-08T07:25:38.900Z,1003.04
2016-11-08T07:26:19.425Z,1003.05
2016-11-08T07:26:59.959Z,1003.03
2016-11-08T07:27:40.564Z,1003.03
2016-11-08T07:28:21.103Z,1003.03
2016-11-08T07:29:01.635Z,1003.07
2016-11-08T07:29:42.177Z,1003.06
2016-11-08T07:30:22.720Z,1003.05
2016-11-08T07:31:03.247Z,1003.05
2016-11-08T07:31:43.775Z,1003.07
2016-11-08T07:32:24.308Z,1003.07
2016-11-08T07:33:04.845Z,1003.08
2016-11-08T07:33:45.376Z,1003.1
2016-11-08T07:34:25.894Z,1003.12
2016-11-08T07:35:06.417Z,1003.08
2016-11-08T07:35:46.953Z,1003.11
2016-11-08T07:36:27.490Z,1003.1
2016-11-08T07:37:08.051Z,1003.1
2016-11-08T07:37:48.588Z,1003.12
2016-11-08T07:38:29.107Z,1003.14
2016-11-08T07:39:09.623Z,1003.13
2016-11-08T07:39:50.154Z,1003.18
2016-11-08T07:40:30.688Z,1003.17
2016-11-08T07:41:11.238Z,1003.13
2016-11-08T07:41:51.781Z,1003.18
2016-11-08T07:42:32.302Z,1003.18
2016-11-08T07:43:12.825Z,1003.15
2016-11-08T07:43:53.354Z,1003.17
2016-11-08T07:44:33.882Z,1003.16
2016-11-08T07:45:14.410Z,1003.15
2016-11-08T07:45:54.925Z,1003.12
2016-11-08T07:46:35.488Z,1003.19
2016-11-08T07:47:15.993Z,1003.19
2016-11-08T07:47:56.510Z,1003.17
2016-11-08T07:48:37.028Z,1003.14
2016-11-08T07:49:17.562Z,1003.17
2016-11-08T07:49:58.105Z,1003.14
2016-11-08T07:50:38.645Z,1003.15
2016-11-08T07:51:19.178Z,1003.17
2016-11-08T07:51:59.705Z,1003.2
2016-11-08T07:52:40.242Z,1003.19
2016-11-08T07:53:20.765Z,1003.23
2016-11-08T07:54:01.285Z,1003.22
2016-11-08T07:54:41.896Z,1003.21
2016-11-08T07:55:22.411Z,1003.18
2016-11-08T07:56:02.940Z,1003.23
2016-11-08T07:56:43.476Z,1003.21
2016-11-08T07:57:24.061Z,1003.22
2016-11-08T07:58:04.597Z,1003.25
2016-11-08T07:58:45.120Z,1003.21
2016-11-08T07:59:25.664Z,1003.24
2016-11-08T08:00:06.187Z,1003.23
2016-11-08T08:00:46.716Z,1003.25
2016-11-08T08:01:27.241Z,1003.23
2016-11-08T08:02:07.759Z,1003.22
2016-11-08T08:02:48.280Z,1003.24
2016-11-08T08:03:28.818Z,1003.22
2016-11-08T08:04:09.473Z,1003.22
2016-11-08T08:04:49.907Z,1003.29
2016-11-08T08:05:30.435Z,1003.28
2016-11-08T08:06:10.944Z,1003.26
2016-11-08T08:06:51.487Z,1003.26
2016-11-08T08:07:32.007Z,1003.24
2016-11-08T08:08:12.536Z,1003.28
2016-11-08T08:08:53.068Z,1003.29
2016-11-08T08:09:33.590Z,1003.31
2016-11-08T08:10:14.170Z,1003.3
2016-11-08T08:10:54.683Z,1003.26
2016-11-08T08:11:35.214Z,1003.27
2016-11-08T08:12:15.750Z,1003.26
2016-11-08T08:12:56.450Z,1003.27
2016-11-08T08:13:36.931Z,1003.23
2016-11-08T08:14:17.465Z,1003.29
2016-11-08T08:14:57.986Z,1003.24
2016-11-08T08:15:38.516Z,1003.29
2016-11-08T08:16:19.053Z,1003.29
2016-11-08T08:16:59.595Z,1003.28
2016-11-08T08:17:40.119Z,1003.26
2016-11-08T08:18:20.646Z,1003.31
2016-11-08T08:19:01.169Z,1003.22
2016-11-08T08:19:41.711Z,1003.3
2016-11-08T08:20:22.227Z,1003.3
2016-11-08T08:21:02.749Z,1003.29
2016-11-08T08:21:43.267Z,1003.31
2016-11-08T08:22:23.795Z,1003.36
2016-11-08T08:23:04.316Z,1003.37
2016-11-08T08:23:44.836Z,1003.38
2016-11-08T08:24:25.379Z,1003.36
2016-11-08T08:25:05.900Z,1003.37
2016-11-08T08:25:46.435Z,1003.34
2016-11-08T08:26:26.943Z,1003.36
2016-11-08T08:27:07.482Z,1003.36
2016-11-08T08:27:48.009Z,1003.37
2016-11-08T08:28:28.532Z,1003.42
2016-11-08T08:29:09.043Z,1003.33
2016-11-08T08:29:49.568Z,1003.39
2016-11-08T08:30:30.115Z,1003.4
2016-11-08T08:31:10.628Z,1003.36
2016-11-08T08:31:51.161Z,1003.41
2016-11-08T08:32:31.670Z,1003.43
2016-11-08T08:33:12.210Z,1003.4
2016-11-08T08:33:52.751Z,1003.42
2016-11-08T08:34:33.279Z,1003.46
2016-11-08T08:35:13.822Z,1003.42
2016-11-08T08:35:54.346Z,1003.43
2016-11-08T08:36:34.884Z,1003.43
2016-11-08T08:37:15.425Z,1003.47
2016-11-08T08:37:55.933Z,1003.48
2016-11-08T08:38:36.474Z,1003.46
2016-11-08T08:39:17.014Z,1003.46
2016-11-08T08:39:57.531Z,1003.46
2016-11-08T08:40:38.067Z,1003.48
2016-11-08T08:41:18.618Z,1003.54
2016-11-08T08:41:59.157Z,1003.53
2016-11-08T08:42:39.685Z,1003.51
2016-11-08T08:43:20.208Z,1003.51
2016-11-08T08:44:00.738Z,1003.54
2016-11-08T08:44:41.264Z,1003.55
2016-11-08T08:45:21.782Z,1003.53
2016-11-08T08:46:08.727Z,1003.55
2016-11-08T08:46:49.260Z,1003.52
2016-11-08T08:47:29.784Z,1003.51
2016-11-08T08:48:10.305Z,1003.53
2016-11-08T08:48:50.842Z,1003.51
2016-11-08T08:49:31.369Z,1003.51
2016-11-08T08:50:11.883Z,1003.53
2016-11-08T08:50:52.417Z,1003.53
2016-11-08T08:51:32.944Z,1003.52
2016-11-08T08:52:13.484Z,1003.52
2016-11-08T08:52:54.024Z,1003.56
2016-11-08T08:53:34.519Z,1003.55
2016-11-08T08:54:15.053Z,1003.56
2016-11-08T08:54:55.594Z,1003.52
2016-11-08T08:55:36.127Z,1003.53
2016-11-08T08:56:16.652Z,1003.53